Time;durP1;ratioP1;P1;durP2;ratioP2;P2;SDS_P1;SDS_P2;PMS_P1;PMS_P2;Temp;Humidity;BMP_temperature;BMP_pressure;BME280_temperature;BME280_humidity;BME280_pressure;Samples;Min_cycle;Max_cycle;Signal;HPM_P1;HPM_P2
2022/05/14 00:02:14;;;;;;;14.90;12.10;;;;;;;15.85;95.13;100731.39;107124;1253;69275;-80
2022/05/14 00:04:44;;;;;;;18.60;12.20;;;;;;;15.79;94.96;100728.77;107003;1253;73465;-81
2022/05/14 00:07:13;;;;;;;21.10;13.60;;;;;;;15.73;96.75;100726.73;106938;1253;63489;-83
2022/05/14 00:09:42;;;;;;;20.60;12.90;;;;;;;15.69;97.76;100723.48;107013;1253;61556;-83
2022/05/14 00:14:58;;;;;;;17.80;13.60;;;;;;;15.60;96.44;100714.04;106947;1253;72395;-81
2022/05/14 00:17:27;;;;;;;20.00;13.30;;;;;;;15.56;96.52;100716.39;106934;1253;70328;-79
2022/05/14 00:19:56;;;;;;;16.50;13.00;;;;;;;15.52;95.45;100712.89;106888;1253;73024;-82
2022/05/14 00:22:25;;;;;;;15.80;12.30;;;;;;;15.45;94.98;100713.88;106945;1253;62841;-82
2022/05/14 00:24:53;;;;;;;18.40;12.40;;;;;;;15.35;94.56;100711.10;106900;1253;60764;-83
2022/05/14 00:27:23;;;;;;;18.60;13.10;;;;;;;15.27;94.71;100714.16;107008;1253;72543;-83
2022/05/14 00:29:52;;;;;;;16.50;12.20;;;;;;;15.20;95.09;100713.77;106934;1253;72276;-81
2022/05/14 00:32:21;;;;;;;16.00;13.00;;;;;;;15.15;94.91;100713.84;106942;1253;68546;-83
2022/05/14 00:34:50;;;;;;;15.40;13.10;;;;;;;15.11;94.41;100717.53;106915;1253;73846;-82
2022/05/14 00:37:18;;;;;;;16.00;13.50;;;;;;;15.06;94.61;100718.90;106979;1253;62497;-82
2022/05/14 00:39:47;;;;;;;17.30;13.70;;;;;;;15.01;94.36;100714.05;106951;1254;61539;-81
2022/05/14 00:42:16;;;;;;;18.00;14.00;;;;;;;14.97;95.44;100711.23;106895;1256;70990;-82
2022/05/14 00:44:45;;;;;;;16.40;13.80;;;;;;;14.94;95.10;100705.45;107089;1253;71138;-81
2022/05/14 00:47:17;;;;;;;18.20;12.90;;;;;;;14.92;95.53;100708.10;107147;1253;66900;-82
2022/05/14 00:49:47;;;;;;;17.80;14.60;;;;;;;14.89;95.93;100703.30;107160;1253;72030;-82
2022/05/14 00:52:20;;;;;;;16.80;12.00;;;;;;;14.84;95.21;100699.07;107118;1253;61632;-82
2022/05/14 00:55:03;;;;;;;15.10;12.50;;;;;;;14.80;95.65;100701.93;107201;1253;59700;-83
2022/05/14 00:57:37;;;;;;;15.70;13.00;;;;;;;14.76;97.69;100699.71;107214;1253;70704;-82
2022/05/14 01:00:13;;;;;;;20.60;14.50;;;;;;;14.73;99.19;100701.73;107329;1253;69547;-81
2022/05/14 01:02:42;;;;;;;14.10;12.20;;;;;;;14.70;99.84;100698.10;107231;1251;70611;-82
2022/05/14 01:05:12;;;;;;;17.10;12.60;;;;;;;14.65;99.51;100695.61;107342;1251;73965;-79
2022/05/14 01:07:42;;;;;;;17.40;14.00;;;;;;;14.60;98.19;100697.80;107474;1251;62665;-83
2022/05/14 01:10:12;;;;;;;22.20;14.70;;;;;;;14.66;99.47;100695.30;107428;1251;60064;-84
2022/05/14 01:12:50;;;;;;;18.50;14.90;;;;;;;14.65;97.76;100695.09;107132;1251;71907;-83
2022/05/14 01:15:23;;;;;;;17.00;12.80;;;;;;;14.70;99.64;100693.58;107416;1251;71744;-83
2022/05/14 01:17:52;;;;;;;15.40;12.40;;;;;;;14.65;99.93;100698.41;107332;1253;69040;-82
2022/05/14 01:20:21;;;;;;;21.90;13.50;;;;;;;14.63;99.82;100691.61;107308;1251;73544;-84
2022/05/14 01:23:09;;;;;;;16.70;13.20;;;;;;;14.59;99.99;100700.83;107226;1253;61114;-83
2022/05/14 01:29:23;;;;;;;14.70;12.20;;;;;;;14.41;99.58;100692.08;107383;1251;72002;-83
2022/05/14 01:31:56;;;;;;;19.10;13.10;;;;;;;14.42;100.00;100700.09;107376;1253;70991;-84
2022/05/14 01:34:32;;;;;;;13.90;11.40;;;;;;;14.40;100.00;100697.64;107308;1253;70335;-84
2022/05/14 01:37:03;;;;;;;14.50;12.80;;;;;;;14.38;100.00;100697.59;107257;1253;73277;-83
2022/05/14 01:39:32;;;;;;;29.80;12.30;;;;;;;14.37;100.00;100699.09;107339;1251;62081;-83
2022/05/14 01:42:00;;;;;;;13.70;11.00;;;;;;;14.36;100.00;100700.41;107090;1252;61189;-81
2022/05/14 01:44:29;;;;;;;14.80;11.50;;;;;;;14.29;99.76;100703.96;107162;1253;70908;-80
2022/05/14 01:46:59;;;;;;;17.70;11.50;;;;;;;14.29;99.65;100711.52;107333;1251;72204;-81
2022/05/14 01:49:27;;;;;;;14.60;12.10;;;;;;;14.31;99.88;100709.81;107130;1253;70945;-80
2022/05/14 01:51:56;;;;;;;18.30;14.00;;;;;;;14.32;100.00;100709.89;107036;1253;71267;-82
2022/05/14 01:54:25;;;;;;;20.20;13.30;;;;;;;14.30;99.64;100715.67;107209;1251;61749;-83
2022/05/14 01:56:55;;;;;;;18.70;14.40;;;;;;;14.22;98.75;100710.94;107286;1251;60438;-85
2022/05/14 01:59:25;;;;;;;22.90;14.30;;;;;;;14.14;100.00;100707.40;107297;1251;71459;-86
2022/05/14 02:01:54;;;;;;;22.00;15.10;;;;;;;14.10;100.00;100714.26;107277;1253;69601;-84
2022/05/14 02:04:23;;;;;;;27.10;15.10;;;;;;;14.10;100.00;100724.09;107335;1253;67898;-86
2022/05/14 02:06:52;;;;;;;22.80;14.30;;;;;;;14.07;100.00;100722.20;107208;1253;73089;-81
2022/05/14 02:09:21;;;;;;;40.10;16.60;;;;;;;14.06;100.00;100720.76;107263;1253;60737;-80
2022/05/14 02:11:55;;;;;;;26.70;16.80;;;;;;;14.06;100.00;100726.30;107336;1251;60467;-80
2022/05/14 02:14:31;;;;;;;23.70;14.70;;;;;;;14.10;100.00;100733.74;107353;1251;72195;-81
2022/05/14 02:17:00;;;;;;;22.40;15.10;;;;;;;14.02;100.00;100727.22;107157;1253;71507;-80
2022/05/14 02:19:30;;;;;;;19.40;13.70;;;;;;;13.95;100.00;100724.70;107337;1251;69615;-82
2022/05/14 02:22:00;;;;;;;20.00;14.70;;;;;;;13.93;100.00;100727.67;107143;1251;73261;-82
2022/05/14 02:24:30;;;;;;;17.80;13.40;;;;;;;13.90;100.00;100728.44;107581;1250;60876;-80
2022/05/14 02:26:59;;;;;;;17.30;12.70;;;;;;;13.84;100.00;100730.41;107350;1253;59703;-81
2022/05/14 02:29:50;;;;;;;15.60;12.10;;;;;;;13.74;99.91;100739.20;107377;1250;70912;-80
2022/05/14 02:32:25;;;;;;;17.10;11.70;;;;;;;13.62;98.75;100745.02;107192;1251;69541;-77
2022/05/14 02:34:55;;;;;;;15.90;12.80;;;;;;;13.50;98.67;100745.46;106987;1250;69718;-82
2022/05/14 02:37:26;;;;;;;16.60;13.00;;;;;;;13.45;99.74;100750.64;106892;1250;71675;-81
2022/05/14 02:39:55;;;;;;;16.20;12.30;;;;;;;13.42;100.00;100748.58;107126;1253;60362;-82
2022/05/14 02:42:25;;;;;;;15.70;12.00;;;;;;;13.40;99.98;100748.44;107134;1251;59717;-81
2022/05/14 02:44:54;;;;;;;13.20;11.80;;;;;;;13.34;99.52;100752.74;107071;1251;72760;-82
2022/05/14 02:47:23;;;;;;;12.50;11.20;;;;;;;13.28;98.48;100762.17;107204;1250;70736;-80
2022/05/14 02:49:52;;;;;;;12.90;11.40;;;;;;;13.20;98.65;100753.17;107224;1250;68647;-81
2022/05/14 02:52:22;;;;;;;14.60;12.30;;;;;;;13.19;100.00;100757.33;107191;1250;70200;-81
2022/05/14 02:54:51;;;;;;;14.70;12.80;;;;;;;13.22;99.99;100762.16;107076;1253;60624;-81
2022/05/14 02:57:20;;;;;;;14.30;12.50;;;;;;;13.24;100.00;100764.79;106977;1250;61011;-80
2022/05/14 02:59:50;;;;;;;14.50;12.50;;;;;;;13.27;100.00;100766.81;107123;1250;73097;-81
2022/05/14 03:02:19;;;;;;;16.20;12.00;;;;;;;13.30;100.00;100770.92;107150;1250;72623;-76
2022/05/14 03:04:48;;;;;;;16.90;12.50;;;;;;;13.33;100.00;100768.76;107104;1250;71497;-79
2022/05/14 03:07:17;;;;;;;15.40;12.00;;;;;;;13.30;100.00;100770.39;107163;1250;72854;-78
2022/05/14 03:09:46;;;;;;;12.90;11.60;;;;;;;13.34;100.00;100772.58;107042;1250;61326;-77
2022/05/14 03:12:16;;;;;;;12.40;11.10;;;;;;;13.35;100.00;100773.83;107031;1250;58867;-76
2022/05/14 03:14:45;;;;;;;16.10;11.20;;;;;;;13.33;100.00;100778.36;107145;1250;72763;-78
2022/05/14 03:17:13;;;;;;;18.20;12.00;;;;;;;13.32;100.00;100775.67;107139;1253;72627;-77
2022/05/14 03:19:42;;;;;;;18.50;12.40;;;;;;;13.31;100.00;100782.41;107141;1253;69219;-80
2022/05/14 03:22:11;;;;;;;20.20;12.30;;;;;;;13.30;99.95;100785.97;107225;1250;71334;-80
2022/05/14 03:24:41;;;;;;;19.00;11.70;;;;;;;13.32;100.00;100790.76;107074;1250;60558;-78
2022/05/14 03:27:12;;;;;;;26.50;12.50;;;;;;;13.32;99.47;100792.47;107192;1250;60345;-79
2022/05/14 03:29:41;;;;;;;22.30;11.90;;;;;;;13.32;98.93;100799.67;107084;1251;72287;-81
2022/05/14 03:32:10;;;;;;;20.00;12.40;;;;;;;13.32;98.94;100798.45;107144;1250;69420;-80
2022/05/14 03:34:39;;;;;;;27.80;14.10;;;;;;;13.31;99.33;100802.31;106842;1253;68780;-78
2022/05/14 03:37:08;;;;;;;31.80;13.70;;;;;;;13.36;99.90;100808.08;107075;1250;72355;-79
2022/05/14 03:39:37;;;;;;;24.00;12.20;;;;;;;13.39;100.00;100806.25;107057;1253;60205;-77
2022/05/14 03:42:06;;;;;;;33.30;14.10;;;;;;;13.44;100.00;100808.94;107210;1250;59675;-80
2022/05/14 03:44:35;;;;;;;15.20;10.20;;;;;;;13.48;99.36;100810.52;107402;1250;71654;-81
2022/05/14 03:47:04;;;;;;;20.50;10.60;;;;;;;13.57;98.50;100816.30;107383;1252;69557;-81
2022/05/14 03:49:33;;;;;;;16.10;12.00;;;;;;;13.58;98.93;100813.24;107377;1251;68765;-83
2022/05/14 03:52:02;;;;;;;17.80;12.90;;;;;;;13.64;100.00;100815.33;107441;1253;71367;-83
2022/05/14 03:54:32;;;;;;;15.00;12.50;;;;;;;13.69;100.00;100822.27;107461;1250;61166;-81
2022/05/14 03:57:00;;;;;;;17.50;13.00;;;;;;;13.77;100.00;100820.88;107353;1250;60992;-80
2022/05/14 03:59:31;;;;;;;15.60;13.00;;;;;;;13.86;100.00;100824.73;107207;1250;74287;-82
2022/05/14 04:02:02;;;;;;;16.80;14.20;;;;;;;13.93;100.00;100827.29;107345;1251;70139;-84
2022/05/14 04:04:33;;;;;;;20.50;13.80;;;;;;;13.99;100.00;100829.89;107437;1250;67890;-82
2022/05/14 04:07:02;;;;;;;19.30;13.90;;;;;;;14.01;100.00;100828.48;107468;1250;73947;-82
2022/05/14 04:09:31;;;;;;;14.90;12.30;;;;;;;14.02;100.00;100835.94;107564;1250;62673;-82
2022/05/14 04:11:59;;;;;;;17.50;12.00;;;;;;;14.08;100.00;100834.59;107289;1250;61950;-81
2022/05/14 04:14:28;;;;;;;13.00;11.60;;;;;;;14.10;99.99;100836.83;107006;1253;72448;-81
2022/05/14 04:16:58;;;;;;;12.30;9.60;;;;;;;14.16;99.93;100840.18;107744;1250;71215;-84
2022/05/14 04:19:28;;;;;;;14.70;10.10;;;;;;;14.26;99.36;100836.31;107768;1250;70625;-82
2022/05/14 04:21:57;;;;;;;13.20;9.60;;;;;;;14.31;99.32;100839.20;107334;1250;74316;-81
2022/05/14 04:24:27;;;;;;;13.60;8.40;;;;;;;14.42;98.78;100840.55;107328;1251;63632;-80
2022/05/14 04:26:56;;;;;;;10.20;9.10;;;;;;;14.50;97.86;100841.43;107344;1253;59512;-79
2022/05/14 04:29:25;;;;;;;13.80;10.20;;;;;;;14.58;98.12;100842.69;107306;1250;70867;-82
2022/05/14 04:31:54;;;;;;;13.80;10.00;;;;;;;14.66;98.74;100849.23;107124;1250;70381;-78
2022/05/14 04:34:23;;;;;;;11.80;8.60;;;;;;;14.77;97.44;100848.60;107215;1251;70435;-83
2022/05/14 04:36:51;;;;;;;13.50;10.60;;;;;;;14.87;96.08;100844.06;107128;1251;73617;-83
2022/05/14 04:39:20;;;;;;;18.20;10.40;;;;;;;14.91;96.07;100847.06;107419;1251;62024;-83
2022/05/14 04:41:49;;;;;;;13.00;9.40;;;;;;;14.96;95.82;100845.55;107456;1250;61158;-81
2022/05/14 04:44:17;;;;;;;15.00;10.60;;;;;;;15.03;95.44;100844.02;108157;1244;72551;-85
2022/05/14 04:46:47;;;;;;;15.00;10.70;;;;;;;15.10;95.63;100849.70;108118;1244;71227;-82
2022/05/14 04:49:16;;;;;;;14.00;10.40;;;;;;;15.21;95.02;100853.45;108097;1244;68725;-80
2022/05/14 04:51:46;;;;;;;17.10;10.40;;;;;;;15.28;94.61;100849.81;108192;1244;73326;-83
2022/05/14 04:54:15;;;;;;;13.10;9.70;;;;;;;15.34;94.08;100857.85;108429;1242;60461;-80
2022/05/14 04:56:45;;;;;;;14.10;9.50;;;;;;;15.44;93.70;100855.73;108323;1244;59284;-82
2022/05/14 04:59:14;;;;;;;14.00;10.50;;;;;;;15.57;93.42;100859.89;108131;1244;72495;-79
2022/05/14 05:03:16;;;;;;;12.30;7.60;;;;;;;15.66;93.01;100862.01;108284;1243;69543;-80
2022/05/14 05:04:34;;;;;;;8.80;6.40;;;;;;;15.82;91.79;100862.49;108154;1244;69777;-81
2022/05/14 05:07:04;;;;;;;7.90;6.60;;;;;;;15.94;89.87;100866.14;108283;1243;71583;-81
2022/05/14 05:09:33;;;;;;;8.30;6.30;;;;;;;16.06;88.89;100859.20;108242;1241;62152;-82
2022/05/14 05:12:02;;;;;;;9.50;6.50;;;;;;;16.17;87.04;100856.41;108121;1244;60673;-81
2022/05/14 05:14:31;;;;;;;8.80;6.10;;;;;;;16.26;87.12;100861.39;108291;1243;72471;-81
2022/05/14 05:17:00;;;;;;;8.40;6.00;;;;;;;16.39;85.89;100860.01;108136;1242;72099;-82
2022/05/14 05:19:29;;;;;;;7.00;4.70;;;;;;;16.49;85.62;100865.22;107983;1244;70262;-82
2022/05/14 05:21:58;;;;;;;8.30;5.50;;;;;;;16.55;83.32;100865.35;108077;1242;72538;-82
2022/05/14 05:24:26;;;;;;;7.00;4.60;;;;;;;16.62;83.23;100863.47;108027;1244;60643;-82
2022/05/14 05:26:55;;;;;;;7.30;5.90;;;;;;;16.69;82.28;100863.33;108086;1242;59156;-80
2022/05/14 05:29:24;;;;;;;8.70;5.10;;;;;;;16.73;81.55;100870.55;108013;1244;71852;-80
2022/05/14 05:31:52;;;;;;;5.40;4.40;;;;;;;16.76;81.30;100869.40;107899;1244;71595;-79
2022/05/14 05:34:21;;;;;;;6.60;5.50;;;;;;;16.76;81.31;100872.83;107988;1244;68768;-79
2022/05/14 05:36:50;;;;;;;7.80;5.60;;;;;;;16.80;81.47;100874.45;108059;1244;73443;-83
2022/05/14 05:39:21;;;;;;;8.00;5.20;;;;;;;16.87;80.34;100876.36;108070;1244;63960;-80
2022/05/14 05:41:50;;;;;;;7.30;5.40;;;;;;;16.91;80.59;100871.89;108021;1244;59810;-78
2022/05/14 05:44:19;;;;;;;9.70;6.10;;;;;;;16.99;80.19;100870.14;108088;1242;72619;-79
2022/05/14 05:46:48;;;;;;;7.00;5.30;;;;;;;17.03;79.48;100870.77;108001;1244;70136;-81
2022/05/14 05:49:17;;;;;;;10.90;5.50;;;;;;;17.10;78.51;100874.49;108094;1242;70652;-79
2022/05/14 05:51:45;;;;;;;8.30;6.10;;;;;;;17.01;78.36;100877.46;108221;1243;74890;-82
2022/05/14 05:57:01;;;;;;;8.60;5.60;;;;;;;17.13;77.24;100876.98;108222;1243;60174;-84
2022/05/14 05:59:32;;;;;;;10.10;6.30;;;;;;;17.15;77.65;100883.69;108396;1243;72768;-79
2022/05/14 06:02:01;;;;;;;9.00;6.80;;;;;;;17.29;77.36;100883.54;108327;1244;70316;-79
2022/05/14 06:04:30;;;;;;;9.10;6.20;;;;;;;17.36;76.54;100882.15;108192;1244;67851;-80
2022/05/14 06:06:59;;;;;;;7.90;6.10;;;;;;;17.37;76.05;100884.50;108149;1244;73180;-79
2022/05/14 06:09:30;;;;;;;8.20;6.00;;;;;;;17.38;75.86;100881.94;108087;1242;62850;-77
2022/05/14 06:11:58;;;;;;;6.60;5.40;;;;;;;17.44;75.80;100883.44;108052;1243;61760;-79
2022/05/14 06:14:27;;;;;;;11.00;5.60;;;;;;;17.43;75.87;100879.48;108278;1244;63419;-81
2022/05/14 06:16:56;;;;;;;9.00;5.80;;;;;;;17.54;75.21;100875.28;108325;1242;72563;-78
2022/05/14 06:19:25;;;;;;;8.90;4.90;;;;;;;17.60;74.38;100884.55;108271;1243;71057;-80
2022/05/14 06:21:53;;;;;;;5.70;4.40;;;;;;;17.63;72.58;100885.44;108154;1244;74454;-81
2022/05/14 06:24:22;;;;;;;6.10;4.40;;;;;;;17.69;72.48;100887.69;107883;1246;57316;-80
2022/05/14 06:26:51;;;;;;;8.00;5.00;;;;;;;17.77;72.60;100885.70;108346;1244;59648;-82
2022/05/14 06:29:19;;;;;;;7.40;3.90;;;;;;;17.78;73.30;100889.64;108369;1243;74228;-82
2022/05/14 06:31:49;;;;;;;7.40;4.80;;;;;;;17.90;71.84;100890.86;108251;1244;61350;-80
2022/05/14 06:34:18;;;;;;;5.80;4.00;;;;;;;17.96;70.87;100896.39;108283;1244;70539;-80
2022/05/14 06:36:46;;;;;;;9.90;5.20;;;;;;;17.99;70.93;100897.52;108052;1244;73427;-82
2022/05/14 06:39:15;;;;;;;7.50;4.40;;;;;;;18.05;70.00;100892.16;108099;1242;57632;-80
2022/05/14 06:41:44;;;;;;;6.70;4.20;;;;;;;18.10;69.14;100900.35;108032;1244;60428;-82
2022/05/14 06:44:14;;;;;;;6.20;4.10;;;;;;;18.13;69.89;100894.42;107976;1242;74049;-78
2022/05/14 06:46:42;;;;;;;5.30;3.90;;;;;;;18.22;68.76;100898.95;107879;1244;72743;-77
2022/05/14 06:49:12;;;;;;;5.40;4.30;;;;;;;18.26;68.35;100895.52;107941;1244;61542;-78
2022/05/14 06:51:42;;;;;;;6.70;4.00;;;;;;;18.28;68.46;100909.92;108069;1244;72919;-80
2022/05/14 06:54:11;;;;;;;5.60;3.90;;;;;;;18.43;68.42;100909.02;108095;1243;63433;-81
2022/05/14 06:56:43;;;;;;;6.10;3.90;;;;;;;18.53;68.60;100910.92;108375;1242;59112;-80
2022/05/14 06:59:14;;;;;;;6.00;3.70;;;;;;;18.62;66.08;100909.77;108488;1242;63066;-83
2022/05/14 07:01:46;;;;;;;7.90;3.60;;;;;;;18.67;65.94;100904.07;108481;1244;63707;-84
2022/05/14 07:07:06;;;;;;;6.90;4.10;;;;;;;18.66;62.99;100904.86;107873;1244;74254;-77
2022/05/14 07:09:35;;;;;;;4.40;3.10;;;;;;;18.68;64.17;100916.09;107758;1244;60791;-75
2022/05/14 07:12:09;;;;;;;6.40;3.30;;;;;;;18.81;62.93;100922.86;107812;1243;59059;-76
2022/05/14 07:14:43;;;;;;;4.70;2.80;;;;;;;18.78;61.40;100907.49;108069;1244;72809;-76
2022/05/14 07:17:13;;;;;;;4.30;2.90;;;;;;;18.70;61.36;100917.67;107738;1244;61224;-75
2022/05/14 07:19:42;;;;;;;5.40;3.50;;;;;;;18.74;62.72;100923.25;107895;1244;70426;-74
2022/05/14 07:22:14;;;;;;;7.30;3.30;;;;;;;18.77;61.84;100940.04;107888;1244;73857;-74
2022/05/14 07:24:45;;;;;;;3.80;2.80;;;;;;;18.83;62.11;100933.25;107906;1244;57460;-74
2022/05/14 07:27:14;;;;;;;6.10;3.00;;;;;;;18.88;61.60;100922.13;107989;1241;60333;-74
2022/05/14 07:29:45;;;;;;;7.70;3.20;;;;;;;18.96;61.17;100922.33;108006;1244;63030;-76
2022/05/14 07:32:18;;;;;;;4.00;3.20;;;;;;;18.95;60.21;100929.70;107846;1244;70326;-76
2022/05/14 07:34:47;;;;;;;4.20;3.10;;;;;;;18.86;59.91;100931.05;107861;1244;70264;-77
2022/05/14 07:37:21;;;;;;;5.20;2.90;;;;;;;18.91;59.77;100925.68;108046;1243;74813;-75
2022/05/14 07:39:56;;;;;;;4.70;3.20;;;;;;;18.98;59.99;100937.84;108105;1244;59009;-77
2022/05/14 07:42:43;;;;;;;4.20;3.30;;;;;;;19.02;60.25;100928.06;108028;1244;61261;-77
2022/05/14 07:45:21;;;;;;;6.10;3.60;;;;;;;19.10;60.71;100934.02;108021;1244;63555;-77
2022/05/14 07:47:53;;;;;;;5.60;3.30;;;;;;;19.22;59.45;100939.80;107846;1244;72654;-77
2022/05/14 07:50:22;;;;;;;5.60;3.40;;;;;;;19.29;59.51;100942.23;107903;1244;70086;-76
2022/05/14 07:52:54;;;;;;;6.10;4.10;;;;;;;19.33;60.09;100947.21;108005;1244;73846;-76
2022/05/14 07:55:23;;;;;;;4.90;3.50;;;;;;;19.35;60.43;100948.31;108026;1244;60294;-75
2022/05/14 07:57:52;;;;;;;6.60;3.60;;;;;;;19.45;59.25;100951.26;107987;1244;58619;-75
2022/05/14 08:00:21;;;;;;;6.10;3.80;;;;;;;19.46;58.78;100946.55;107952;1244;63281;-76
2022/05/14 08:02:50;;;;;;;5.00;3.70;;;;;;;19.43;59.69;100954.89;107917;1244;70288;-75
2022/05/14 08:05:22;;;;;;;4.30;3.30;;;;;;;19.40;58.83;100953.59;107885;1244;59817;-76
2022/05/14 08:07:51;;;;;;;3.90;3.10;;;;;;;19.42;59.19;100953.33;107859;1244;74829;-75
2022/05/14 08:10:20;;;;;;;5.00;3.40;;;;;;;19.49;58.68;100949.27;107929;1244;60888;-76
2022/05/14 08:12:53;;;;;;;4.60;3.30;;;;;;;19.49;58.44;100941.65;108113;1243;61146;-77
2022/05/14 08:15:26;;;;;;;6.00;3.20;;;;;;;19.65;58.21;100951.41;107917;1244;73302;-77
2022/05/14 08:17:55;;;;;;;4.30;3.10;;;;;;;19.73;57.52;100947.98;107886;1244;62045;-77
2022/05/14 08:20:24;;;;;;;5.80;3.10;;;;;;;19.81;57.26;100948.55;107908;1244;60008;-78
2022/05/14 08:25:42;;;;;;;4.60;3.60;;;;;;;20.00;57.12;100950.83;108603;1244;60521;-80
2022/05/14 08:28:11;;;;;;;4.10;3.00;;;;;;;20.11;57.28;100956.72;109035;1243;58980;-79
2022/05/14 08:30:39;;;;;;;4.30;2.80;;;;;;;20.25;56.24;100964.63;108484;1244;73595;-75
2022/05/14 08:33:08;;;;;;;4.50;3.00;;;;;;;20.23;55.25;100960.56;108016;1244;62363;-75
2022/05/14 08:35:38;;;;;;;5.60;2.70;;;;;;;20.23;56.03;100963.71;107901;1244;59141;-74
2022/05/14 10:02:38;;;;;;;8.30;2.60;;;;;;;21.41;42.82;100938.67;105059;1285;600439;-74
2022/05/14 10:05:39;;;;;;;3.70;2.20;;;;;;;21.52;41.44;100939.57;107041;1259;60976;-74
2022/05/14 10:09:02;;;;;;;3.00;2.00;;;;;;;21.70;41.61;100936.58;107371;1257;61267;-79
2022/05/14 10:11:44;;;;;;;4.30;1.90;;;;;;;21.68;40.34;100940.34;108100;1256;72394;-81
2022/05/14 10:15:01;;;;;;;8.00;2.20;;;;;;;21.69;40.19;100939.54;108342;1256;62788;-84
2022/05/14 10:17:53;;;;;;;4.30;2.10;;;;;;;21.87;40.33;100931.38;107594;1259;61631;-84
2022/05/14 10:21:05;;;;;;;3.00;2.00;;;;;;;22.09;39.69;100938.42;108210;1254;62526;-82
2022/05/14 10:26:58;;;;;;;4.50;2.50;;;;;;;22.32;39.87;100934.25;108002;1254;59034;-80
2022/05/14 10:29:47;;;;;;;4.20;2.40;;;;;;;22.52;41.01;100929.29;108229;1253;72005;-83
2022/05/14 10:32:19;;;;;;;2.80;2.10;;;;;;;22.96;39.05;100936.58;107686;1257;71903;-82
2022/05/14 10:35:22;;;;;;;3.60;2.10;;;;;;;23.04;38.39;100924.79;107592;1259;71538;-83
2022/05/14 10:38:02;;;;;;;3.10;1.90;;;;;;;23.24;38.48;100925.17;107886;1257;74321;-82
2022/05/14 10:40:35;;;;;;;3.90;2.00;;;;;;;23.37;37.81;100930.65;107703;1257;62189;-82
2022/05/14 10:43:43;;;;;;;4.00;2.00;;;;;;;23.49;37.67;100937.50;107918;1257;59050;-85
2022/05/14 10:46:21;;;;;;;7.00;2.10;;;;;;;23.42;37.89;100940.29;107875;1257;61417;-84
2022/05/14 10:49:15;;;;;;;4.30;2.20;;;;;;;23.28;38.12;100931.61;108146;1257;60901;-81
2022/05/14 10:51:49;;;;;;;3.80;2.30;;;;;;;23.13;38.56;100933.60;107458;1259;69854;-85
2022/05/14 10:54:22;;;;;;;5.20;2.30;;;;;;;23.45;38.15;100929.23;107337;1259;63915;-85
2022/05/14 10:57:20;;;;;;;4.60;2.20;;;;;;;23.63;37.57;100924.40;107180;1259;58728;-82
2022/05/14 11:00:11;;;;;;;4.20;2.50;;;;;;;23.71;37.48;100926.79;107160;1260;59003;-80
2022/05/14 11:03:09;;;;;;;4.20;2.10;;;;;;;23.65;36.21;100931.93;107383;1259;72971;-82
2022/05/14 11:06:00;;;;;;;7.50;2.70;;;;;;;23.49;36.42;100923.84;107115;1259;71406;-80
2022/05/14 11:08:46;;;;;;;4.00;2.50;;;;;;;23.89;36.59;100917.24;107214;1259;60863;-81
2022/05/14 11:11:31;;;;;;;3.50;2.00;;;;;;;24.34;36.33;100926.29;107236;1260;73962;-84
2022/05/14 11:14:06;;;;;;;5.60;2.40;;;;;;;24.75;34.16;100923.91;108978;1250;61010;-87
2022/05/14 11:24:53;;;;;;;4.90;2.40;;;;;;;24.61;34.88;100917.97;107132;1275;59429;31
2022/05/14 11:28:11;;;;;;;3.50;2.70;;;;;;;24.61;34.09;100918.55;106877;1275;70096;31
2022/05/14 11:35:45;;;;;;;2.90;2.10;;;;;;;24.79;33.89;100914.80;107140;1274;60971;31
2022/05/14 11:43:08;;;;;;;4.10;2.80;;;;;;;24.75;34.19;100910.17;107108;1274;61977;31
2022/05/14 11:46:48;;;;;;;4.70;2.10;;;;;;;25.54;33.47;100910.55;106937;1275;71523;31
2022/05/14 11:49:36;;;;;;;6.40;2.40;;;;;;;26.01;31.30;100907.34;106654;1285;70778;-90
2022/05/14 11:52:11;;;;;;;6.90;2.60;;;;;;;26.16;31.16;100913.90;106711;1276;73774;-88
2022/05/14 11:54:57;;;;;;;6.10;2.80;;;;;;;25.98;31.81;100909.73;106880;1275;60351;-85
2022/05/14 11:57:49;;;;;;;3.90;2.10;;;;;;;26.15;31.04;100906.36;106839;1275;61270;-87
2022/05/14 12:01:30;;;;;;;5.00;3.00;;;;;;;25.31;33.38;100910.33;107121;1275;69229;31
2022/05/14 12:04:08;;;;;;;4.80;2.50;;;;;;;25.21;33.20;100908.34;106785;1275;71109;-88
2022/05/14 12:13:20;;;;;;;5.80;2.60;;;;;;;24.74;34.85;100905.35;106782;1276;58437;-86
2022/05/14 12:16:00;;;;;;;5.50;2.40;;;;;;;25.04;32.35;100882.36;106719;1275;61052;-87
2022/05/14 12:18:29;;;;;;;5.00;2.40;;;;;;;24.70;33.57;100892.84;106372;1284;71846;-86
2022/05/14 12:21:04;;;;;;;4.20;2.60;;;;;;;24.60;33.03;100865.29;106822;1276;61546;-83
2022/05/14 12:24:38;;;;;;;7.70;2.40;;;;;;;25.09;32.67;100896.98;107027;1274;69978;31
2022/05/14 12:33:25;;;;;;;3.70;2.40;;;;;;;25.17;32.30;100882.88;106721;1275;58334;-87
2022/05/14 12:35:58;;;;;;;2.90;2.30;;;;;;;24.84;32.71;100881.58;106902;1275;72100;-84
2022/05/14 12:38:36;;;;;;;5.00;2.40;;;;;;;24.93;32.93;100879.88;106363;1279;71944;-85
2022/05/14 12:41:18;;;;;;;5.20;2.50;;;;;;;25.07;32.86;100880.08;106261;1285;59865;-81
2022/05/14 12:43:47;;;;;;;4.00;2.30;;;;;;;25.52;31.83;100881.54;106191;1286;73814;-85
2022/05/14 12:50:30;;;;;;;4.90;2.50;;;;;;;25.19;32.08;100877.19;102600;1275;958602;31
2022/05/14 17:54:25;;;;;;;6.20;2.90;;;;;;;19.24;41.82;100992.64;104463;1289;599782;-77
2022/05/14 17:56:55;;;;;;;4.10;2.90;;;;;;;19.19;42.04;100994.28;106582;1263;59125;-80
2022/05/14 17:59:25;;;;;;;5.50;3.20;;;;;;;19.16;42.84;101000.73;107095;1257;58947;-80
2022/05/14 18:01:54;;;;;;;5.10;2.80;;;;;;;19.15;42.44;101001.17;107184;1257;60585;-82
2022/05/14 18:04:23;;;;;;;4.50;2.80;;;;;;;19.14;42.31;101006.95;107267;1254;60672;-76
2022/05/14 18:06:52;;;;;;;4.80;2.40;;;;;;;19.14;42.06;101010.65;107143;1254;279944;-79
2022/05/14 18:09:21;;;;;;;7.20;2.60;;;;;;;19.15;41.76;101022.44;107389;1253;62974;-78
2022/05/14 18:11:50;;;;;;;4.40;2.30;;;;;;;19.15;41.65;101028.42;107578;1251;59214;-79
2022/05/14 18:14:23;;;;;;;5.10;2.30;;;;;;;19.15;41.43;101035.27;107196;1254;59099;-77
2022/05/14 18:16:55;;;;;;;7.80;2.70;;;;;;;19.16;41.34;101044.17;107486;1252;60662;-78
2022/05/14 18:19:29;;;;;;;4.00;2.00;;;;;;;19.15;41.40;101050.31;107436;1253;71493;-76
2022/05/14 18:22:00;;;;;;;2.30;2.00;;;;;;;19.13;41.32;101053.48;107209;1253;71207;-75
2022/05/14 18:24:29;;;;;;;2.30;1.90;;;;;;;19.11;41.44;101062.73;107366;1254;63608;-79
2022/05/14 18:27:04;;;;;;;4.00;2.30;;;;;;;19.03;41.72;101060.55;107204;1254;57879;-76
2022/05/14 18:29:47;;;;;;;4.50;2.50;;;;;;;19.07;41.78;101074.60;107537;1253;60544;-81
2022/05/14 18:32:30;;;;;;;4.50;2.20;;;;;;;19.09;41.93;101084.53;107801;1254;62682;-77
2022/05/14 18:35:00;;;;;;;4.00;2.50;;;;;;;19.04;41.95;101090.23;107546;1253;60910;-80
2022/05/14 18:37:30;;;;;;;4.30;2.20;;;;;;;18.99;42.06;101096.11;107491;1253;59186;-78
2022/05/14 18:40:12;;;;;;;3.40;2.00;;;;;;;18.91;42.16;101105.04;107938;1253;65233;-80
2022/05/14 18:42:42;;;;;;;5.60;2.20;;;;;;;18.87;42.27;101105.80;107583;1252;60504;-79
2022/05/14 18:45:13;;;;;;;4.40;2.50;;;;;;;18.87;42.08;101111.30;107536;1253;61698;-81
2022/05/14 18:47:42;;;;;;;2.60;2.00;;;;;;;18.82;42.43;101111.95;107366;1254;73429;-82
2022/05/14 18:50:11;;;;;;;5.50;2.00;;;;;;;18.77;42.10;101115.98;107487;1253;62092;-81
2022/05/14 18:52:41;;;;;;;3.70;2.00;;;;;;;18.76;41.92;101118.86;107579;1253;70714;-82
2022/05/14 18:55:11;;;;;;;3.00;2.00;;;;;;;18.69;41.87;101123.08;107546;1253;63022;-80
2022/05/14 18:57:40;;;;;;;4.10;1.80;;;;;;;18.63;41.73;101125.95;107612;1253;57608;-79